Time;durP1;ratioP1;P1;durP2;ratioP2;P2;SDS_P1;SDS_P2;PMS_P1;PMS_P2;Temp;Humidity;BMP_temperature;BMP_pressure;BME280_temperature;BME280_humidity;BME280_pressure;Samples;Min_cycle;Max_cycle;Signal;HPM_P1;HPM_P2
2021/01/24 00:00:28;;;;;;;10.00;5.67;;;0.50;99.90;;;;;;5017039;28;20097;-82
2021/01/24 00:02:54;;;;;;;15.37;7.83;;;0.60;99.90;;;;;;5028552;28;20112;-85
2021/01/24 00:05:21;;;;;;;12.33;6.60;;;0.60;99.90;;;;;;5024794;28;20170;-84
2021/01/24 00:07:47;;;;;;;11.33;6.80;;;0.60;99.90;;;;;;5052792;28;20036;-84
2021/01/24 00:10:13;;;;;;;10.13;6.20;;;0.60;99.90;;;;;;5060309;28;20053;-84
2021/01/24 00:12:40;;;;;;;11.93;6.93;;;0.70;99.90;;;;;;5046890;28;20322;-81
2021/01/24 00:15:07;;;;;;;8.73;5.70;;;0.70;99.90;;;;;;5058711;28;20045;-84
2021/01/24 00:17:33;;;;;;;10.77;5.53;;;0.70;99.90;;;;;;5049399;28;20080;-86
2021/01/24 00:20:00;;;;;;;9.87;5.73;;;0.70;99.90;;;;;;5036944;28;20017;-83
2021/01/24 00:22:27;;;;;;;9.50;5.97;;;0.70;99.90;;;;;;5036073;28;20036;-84
2021/01/24 00:24:56;;;;;;;9.60;5.80;;;0.70;99.90;;;;;;5038015;28;20110;-83
2021/01/24 00:27:22;;;;;;;10.87;6.10;;;0.70;99.90;;;;;;5035871;28;20541;-83
2021/01/24 00:29:47;;;;;;;10.17;6.17;;;0.70;99.90;;;;;;5051044;28;20107;-84
2021/01/24 00:32:13;;;;;;;9.07;5.67;;;0.80;99.90;;;;;;5044740;28;20351;-82
2021/01/24 00:34:40;;;;;;;10.30;5.13;;;0.80;99.90;;;;;;5052426;28;20454;-83
2021/01/24 00:37:06;;;;;;;10.87;6.17;;;0.70;99.90;;;;;;5052922;28;20116;-84
2021/01/24 00:39:32;;;;;;;8.87;5.17;;;0.70;99.90;;;;;;5050075;28;20109;-83
2021/01/24 00:41:58;;;;;;;8.17;5.10;;;0.70;99.90;;;;;;5019094;28;20036;-82
2021/01/24 00:44:24;;;;;;;9.30;5.97;;;0.80;99.90;;;;;;5050006;28;20047;-83
2021/01/24 00:46:49;;;;;;;9.03;5.80;;;0.70;99.90;;;;;;5051208;28;20118;-82
2021/01/24 00:49:15;;;;;;;10.23;5.67;;;0.70;99.90;;;;;;5046926;28;20065;-83
2021/01/24 00:51:40;;;;;;;8.10;5.00;;;0.60;99.90;;;;;;5022790;28;20064;-82
2021/01/24 00:54:06;;;;;;;8.53;5.53;;;0.80;99.90;;;;;;5048903;28;20480;-80
2021/01/24 00:56:32;;;;;;;9.03;5.33;;;0.90;99.90;;;;;;5043617;28;20107;-83
2021/01/24 00:58:57;;;;;;;7.60;5.03;;;0.90;99.90;;;;;;5037699;28;20140;-83
2021/01/24 01:01:23;;;;;;;7.93;5.33;;;1.00;99.90;;;;;;5051696;28;20120;-82
2021/01/24 01:03:48;;;;;;;10.13;4.93;;;1.00;99.90;;;;;;5048300;28;20049;-82
2021/01/24 01:06:14;;;;;;;8.20;4.53;;;1.10;99.90;;;;;;5050593;28;20094;-83
2021/01/24 01:08:40;;;;;;;6.87;3.90;;;1.10;99.90;;;;;;5065253;28;20037;-84
2021/01/24 01:11:05;;;;;;;5.70;4.00;;;1.10;99.90;;;;;;5072499;28;20057;-82
2021/01/24 01:13:31;;;;;;;6.10;3.87;;;1.20;99.90;;;;;;5055524;28;20121;-80
2021/01/24 01:15:58;;;;;;;6.63;3.50;;;1.20;99.90;;;;;;5057648;28;20100;-82
2021/01/24 01:18:23;;;;;;;5.47;3.53;;;1.20;99.90;;;;;;5037793;28;20024;-81
2021/01/24 01:20:49;;;;;;;6.67;3.53;;;1.20;99.90;;;;;;5058450;28;20812;-83
2021/01/24 01:23:14;;;;;;;5.83;3.70;;;1.20;99.90;;;;;;5045128;28;20037;-82
2021/01/24 01:25:40;;;;;;;6.93;3.60;;;1.20;99.90;;;;;;5042462;28;20041;-82
2021/01/24 01:28:06;;;;;;;5.60;3.33;;;1.30;99.90;;;;;;5044694;28;20031;-83
2021/01/24 01:30:31;;;;;;;6.20;4.07;;;1.20;99.90;;;;;;5049877;28;20072;-81
2021/01/24 01:32:57;;;;;;;5.30;3.20;;;1.30;99.90;;;;;;5026541;28;20041;-83
2021/01/24 01:35:23;;;;;;;7.50;4.27;;;1.30;99.90;;;;;;5040711;28;20053;-84
2021/01/24 01:37:48;;;;;;;6.37;3.90;;;1.30;99.90;;;;;;5042982;28;20032;-84
2021/01/24 01:40:14;;;;;;;6.17;3.20;;;1.20;99.90;;;;;;5051923;28;20503;-83
2021/01/24 01:42:40;;;;;;;6.73;4.00;;;1.20;99.90;;;;;;5045047;28;20032;-81
2021/01/24 01:45:06;;;;;;;5.77;3.40;;;1.20;99.90;;;;;;5032829;28;20033;-81
2021/01/24 01:47:32;;;;;;;4.70;3.17;;;1.20;99.90;;;;;;5043195;28;20025;-81
2021/01/24 01:50:00;;;;;;;5.33;3.43;;;1.20;99.90;;;;;;5051530;28;20051;-81
2021/01/24 01:52:27;;;;;;;4.70;2.83;;;1.20;99.90;;;;;;5048884;28;20207;-82
2021/01/24 01:54:54;;;;;;;6.83;2.70;;;1.20;99.90;;;;;;5051466;28;20033;-83
2021/01/24 01:57:26;;;;;;;5.17;2.73;;;1.20;99.90;;;;;;5031329;28;20617;-83
2021/01/24 01:59:52;;;;;;;4.80;2.27;;;1.30;99.90;;;;;;5026918;28;20175;-81
2021/01/24 02:02:50;;;;;;;3.33;1.87;;;1.30;99.90;;;;;;5029800;28;20108;-83
2021/01/24 02:05:42;;;;;;;1.70;1.10;;;1.40;99.90;;;;;;4970590;28;20042;-81
2021/01/24 02:08:13;;;;;;;1.03;0.60;;;1.50;99.90;;;;;;4976871;28;20034;-82
2021/01/24 02:11:11;;;;;;;1.53;1.10;;;1.70;99.90;;;;;;4994025;28;20045;-81
2021/01/24 02:13:41;;;;;;;1.77;0.97;;;1.80;99.90;;;;;;4986074;28;20357;-81
2021/01/24 02:16:10;;;;;;;2.00;1.07;;;1.90;99.90;;;;;;4983396;28;20054;-79
2021/01/24 02:18:39;;;;;;;1.87;1.10;;;1.90;99.90;;;;;;4956172;28;20757;-82
2021/01/24 02:21:27;;;;;;;2.28;0.90;;;1.80;99.90;;;;;;4964339;28;20470;-83
2021/01/24 02:23:58;;;;;;;1.50;1.10;;;1.70;99.90;;;;;;4959575;28;20039;-82
2021/01/24 02:26:55;;;;;;;1.87;1.00;;;1.70;99.90;;;;;;4967993;28;20473;-82
2021/01/24 02:29:48;;;;;;;0.80;0.60;;;1.70;99.90;;;;;;4965777;28;20118;-84
2021/01/24 02:32:16;;;;;;;1.10;0.70;;;1.80;99.90;;;;;;4966890;28;20100;-83
2021/01/24 02:34:44;;;;;;;1.50;0.70;;;1.90;99.90;;;;;;4971432;28;20051;-83
2021/01/24 02:37:11;;;;;;;0.67;0.60;;;2.00;99.90;;;;;;4955328;28;20031;-83
2021/01/24 02:39:37;;;;;;;1.70;0.90;;;1.90;99.90;;;;;;4964282;28;20033;-83
2021/01/24 02:42:04;;;;;;;0.97;0.60;;;1.90;99.90;;;;;;5009221;28;20068;-81
2021/01/24 02:44:32;;;;;;;1.67;0.70;;;1.90;99.90;;;;;;5034415;28;20111;-83
2021/01/24 02:47:00;;;;;;;0.40;0.40;;;1.90;99.90;;;;;;5029838;28;20053;-82
2021/01/24 02:49:28;;;;;;;1.37;0.70;;;1.80;99.90;;;;;;5049879;28;20177;-84
2021/01/24 02:51:55;;;;;;;1.20;0.67;;;1.80;99.90;;;;;;5048361;28;20434;-82
2021/01/24 02:54:23;;;;;;;1.53;0.70;;;1.80;99.90;;;;;;5040829;28;20396;-82
2021/01/24 02:56:48;;;;;;;0.83;0.60;;;1.70;99.90;;;;;;5046803;28;20041;-82
2021/01/24 02:59:16;;;;;;;0.80;0.60;;;1.70;99.90;;;;;;5049160;28;20040;-82
2021/01/24 03:01:41;;;;;;;0.67;0.53;;;1.70;99.90;;;;;;5028921;28;20033;-86
2021/01/24 03:04:07;;;;;;;0.60;0.50;;;1.70;99.90;;;;;;5038639;28;20060;-84
2021/01/24 03:06:33;;;;;;;0.97;0.70;;;1.70;99.90;;;;;;5023405;28;20034;-82
2021/01/24 03:08:59;;;;;;;0.40;0.40;;;1.60;99.90;;;;;;5048401;28;20071;-82
2021/01/24 03:11:27;;;;;;;1.10;0.50;;;1.70;99.90;;;;;;5032571;28;20025;-83
2021/01/24 03:14:06;;;;;;;1.07;0.70;;;1.70;99.90;;;;;;5032148;28;20086;-81
2021/01/24 03:16:33;;;;;;;0.65;0.50;;;1.60;99.90;;;;;;5049533;28;20041;-81
2021/01/24 03:18:59;;;;;;;0.60;0.50;;;1.60;99.90;;;;;;5049560;28;20356;-80
2021/01/24 03:21:25;;;;;;;0.57;0.50;;;1.70;99.90;;;;;;5042996;28;20029;-82
2021/01/24 03:23:52;;;;;;;1.30;0.63;;;1.60;99.90;;;;;;5050352;28;20070;-82
2021/01/24 03:26:18;;;;;;;0.90;0.60;;;1.60;99.90;;;;;;5029802;28;20081;-83
2021/01/24 03:28:44;;;;;;;1.07;0.90;;;1.60;99.90;;;;;;5047769;28;20071;-81
2021/01/24 03:31:10;;;;;;;1.27;0.70;;;1.60;99.90;;;;;;5033874;28;20026;-82
2021/01/24 03:33:37;;;;;;;0.77;0.43;;;1.60;99.90;;;;;;5018350;28;20391;-82
2021/01/24 03:36:04;;;;;;;1.03;0.70;;;1.60;99.90;;;;;;5040811;28;20514;-83
2021/01/24 03:38:30;;;;;;;0.50;0.50;;;1.50;99.90;;;;;;5050310;28;20463;-83
2021/01/24 03:40:56;;;;;;;0.73;0.67;;;1.50;99.90;;;;;;5030173;28;20504;-82
2021/01/24 03:43:22;;;;;;;1.20;0.60;;;1.40;99.90;;;;;;5053867;28;20039;-82
2021/01/24 03:45:48;;;;;;;0.40;0.40;;;1.40;99.90;;;;;;5057566;28;20021;-84
2021/01/24 03:48:14;;;;;;;1.47;0.50;;;1.50;99.90;;;;;;5056106;28;20033;-84
2021/01/24 03:50:39;;;;;;;0.60;0.60;;;1.50;99.90;;;;;;5057084;28;20031;-85
2021/01/24 03:53:05;;;;;;;0.43;0.43;;;1.60;99.90;;;;;;5057906;28;20029;-84
2021/01/24 03:55:31;;;;;;;0.60;0.60;;;1.70;99.90;;;;;;5038766;28;20088;-85
2021/01/24 03:57:57;;;;;;;0.67;0.60;;;1.90;99.90;;;;;;5058269;28;20082;-85
2021/01/24 04:00:23;;;;;;;0.60;0.47;;;1.80;99.90;;;;;;5052666;28;20083;-83
2021/01/24 04:02:48;;;;;;;1.63;0.60;;;1.80;99.90;;;;;;5039363;28;20480;-83
2021/01/24 04:05:14;;;;;;;0.87;0.60;;;1.90;99.90;;;;;;5049051;28;20028;-83
2021/01/24 04:07:41;;;;;;;1.53;0.60;;;1.90;99.90;;;;;;5035636;28;20033;-83
2021/01/24 04:10:10;;;;;;;0.60;0.40;;;1.90;99.90;;;;;;5051233;28;20032;-83
2021/01/24 04:12:36;;;;;;;0.38;0.30;;;1.90;99.90;;;;;;5050634;28;20486;-83
2021/01/24 04:15:03;;;;;;;1.33;0.70;;;1.90;99.90;;;;;;5038584;28;20041;-83
2021/01/24 04:17:29;;;;;;;0.30;0.30;;;1.90;99.90;;;;;;5053151;28;20071;-83
2021/01/24 04:19:54;;;;;;;2.20;0.57;;;2.10;99.90;;;;;;5056724;28;20060;-82
2021/01/24 04:22:20;;;;;;;0.63;0.60;;;2.10;99.90;;;;;;5056245;28;20472;-83
2021/01/24 04:24:46;;;;;;;0.43;0.40;;;2.10;99.90;;;;;;5054178;28;20040;-83
2021/01/24 04:27:11;;;;;;;0.60;0.60;;;2.20;99.90;;;;;;5045131;28;20029;-84
2021/01/24 04:29:37;;;;;;;0.40;0.30;;;2.30;99.90;;;;;;5056749;28;20033;-83
2021/01/24 04:32:03;;;;;;;0.50;0.43;;;2.20;99.90;;;;;;5056454;28;20024;-84
2021/01/24 04:34:28;;;;;;;0.53;0.47;;;2.20;99.90;;;;;;5057710;28;20103;-84
2021/01/24 04:36:54;;;;;;;0.30;0.30;;;2.20;99.90;;;;;;5054861;28;20036;-83
2021/01/24 04:39:19;;;;;;;0.40;0.40;;;2.20;99.90;;;;;;5078876;28;20107;-83
2021/01/24 04:41:47;;;;;;;0.40;0.40;;;2.20;99.90;;;;;;5080013;28;20013;-84
2021/01/24 04:44:12;;;;;;;0.60;0.43;;;2.10;99.90;;;;;;5055182;28;20029;-83
2021/01/24 04:46:39;;;;;;;0.40;0.40;;;2.10;99.90;;;;;;5062065;28;20090;-84
2021/01/24 04:49:05;;;;;;;0.40;0.40;;;2.10;99.90;;;;;;5052779;28;20026;-82
2021/01/24 04:51:31;;;;;;;0.33;0.30;;;2.10;99.90;;;;;;5080186;28;20013;-83
2021/01/24 04:53:57;;;;;;;0.30;0.30;;;2.00;99.90;;;;;;5039772;28;20033;-84
2021/01/24 04:56:23;;;;;;;0.40;0.40;;;2.00;99.90;;;;;;5039196;28;20051;-85
2021/01/24 04:58:53;;;;;;;0.37;0.30;;;2.00;99.90;;;;;;5033007;28;20121;-84
2021/01/24 05:01:20;;;;;;;0.20;0.20;;;1.90;99.90;;;;;;5041545;28;20025;-85
2021/01/24 05:03:48;;;;;;;0.30;0.30;;;1.90;99.90;;;;;;5049723;28;20033;-83
2021/01/24 05:06:14;;;;;;;0.43;0.40;;;1.90;99.90;;;;;;5035426;28;20064;-84
2021/01/24 05:08:44;;;;;;;0.53;0.30;;;1.90;99.90;;;;;;5054535;28;20040;-83
2021/01/24 05:11:10;;;;;;;0.20;0.20;;;1.80;99.90;;;;;;5035811;28;20024;-84
2021/01/24 05:13:36;;;;;;;1.13;0.33;;;1.80;99.90;;;;;;5052762;28;20065;-83
2021/01/24 05:16:05;;;;;;;0.40;0.40;;;1.70;99.90;;;;;;5054853;28;20037;-83
2021/01/24 05:18:31;;;;;;;0.30;0.30;;;1.70;99.90;;;;;;5052666;28;20115;-82
2021/01/24 05:20:56;;;;;;;0.40;0.40;;;1.70;99.90;;;;;;5054935;28;20091;-89
2021/01/24 05:23:23;;;;;;;0.20;0.20;;;1.80;99.90;;;;;;5041878;28;20021;-92
2021/01/24 05:25:53;;;;;;;0.80;0.40;;;1.70;99.90;;;;;;5040577;28;20044;-85
2021/01/24 05:28:21;;;;;;;0.55;0.35;;;1.70;99.90;;;;;;5046884;28;20037;-84
2021/01/24 05:30:48;;;;;;;0.30;0.30;;;1.70;99.90;;;;;;5037370;28;20064;-85
2021/01/24 05:33:20;;;;;;;0.50;0.47;;;1.60;99.90;;;;;;5037424;28;20087;-85
2021/01/24 05:35:47;;;;;;;0.27;0.27;;;1.60;99.90;;;;;;5013877;28;20046;-83
2021/01/24 05:38:22;;;;;;;0.40;0.40;;;1.50;99.90;;;;;;5035945;28;20036;-84
2021/01/24 05:40:47;;;;;;;0.67;0.43;;;1.50;99.90;;;;;;5052771;28;20044;-82
2021/01/24 05:43:15;;;;;;;1.93;0.60;;;1.40;99.90;;;;;;5064796;28;20025;-82
2021/01/24 05:45:40;;;;;;;0.97;0.40;;;1.30;99.90;;;;;;5063643;28;20142;-81
2021/01/24 05:48:06;;;;;;;0.50;0.50;;;1.40;99.90;;;;;;5032633;28;20045;-84
2021/01/24 05:50:34;;;;;;;0.50;0.43;;;1.30;99.90;;;;;;5036097;28;20452;-84
2021/01/24 05:53:05;;;;;;;0.57;0.40;;;1.30;99.90;;;;;;5051744;28;20021;-82
2021/01/24 05:55:35;;;;;;;0.47;0.47;;;1.20;99.90;;;;;;5047082;28;20049;-85
2021/01/24 05:58:15;;;;;;;0.47;0.40;;;1.20;99.90;;;;;;5051732;28;20086;-85
2021/01/24 06:00:46;;;;;;;0.33;0.33;;;1.20;99.90;;;;;;5025327;28;20409;-88
2021/01/24 06:03:12;;;;;;;0.60;0.60;;;1.10;99.90;;;;;;5023645;28;20110;-86
2021/01/24 06:05:40;;;;;;;0.63;0.53;;;1.10;99.90;;;;;;5053072;28;20029;-83
2021/01/24 06:08:08;;;;;;;1.03;0.40;;;1.00;99.90;;;;;;5052297;28;20029;-84
2021/01/24 06:10:34;;;;;;;0.60;0.50;;;1.00;99.90;;;;;;5031346;28;20671;-84
2021/01/24 06:13:03;;;;;;;0.70;0.50;;;1.00;99.90;;;;;;5036662;28;20036;-85
2021/01/24 06:15:30;;;;;;;0.40;0.40;;;1.00;99.90;;;;;;5030476;28;20037;-88
2021/01/24 06:18:01;;;;;;;0.83;0.70;;;1.00;99.90;;;;;;5061147;28;20290;-87
2021/01/24 06:20:37;;;;;;;0.77;0.60;;;1.00;99.90;;;;;;5053067;28;20062;-83
2021/01/24 06:23:10;;;;;;;1.37;0.63;;;1.00;99.90;;;;;;5046187;28;20734;-80
2021/01/24 06:25:41;;;;;;;1.17;0.30;;;0.90;99.90;;;;;;5032341;28;20056;-79
2021/01/24 06:28:14;;;;;;;0.53;0.50;;;0.80;99.90;;;;;;5049313;28;20033;-79
2021/01/24 06:30:45;;;;;;;1.53;0.43;;;0.90;99.90;;;;;;5049418;28;20021;-80
2021/01/24 06:33:20;;;;;;;1.43;0.70;;;0.90;99.90;;;;;;5041432;28;20036;-79
2021/01/24 06:35:48;;;;;;;0.37;0.37;;;0.90;99.90;;;;;;5041997;28;20037;-81
2021/01/24 06:38:29;;;;;;;0.40;0.33;;;0.90;99.90;;;;;;5049388;28;20057;-79
2021/01/24 06:40:55;;;;;;;0.67;0.63;;;0.90;99.90;;;;;;5044054;28;20032;-80
2021/01/24 06:43:44;;;;;;;0.50;0.50;;;0.80;99.90;;;;;;5049140;28;20021;-80
2021/01/24 06:46:24;;;;;;;0.53;0.47;;;0.80;99.90;;;;;;5041979;28;20026;-80
2021/01/24 06:48:51;;;;;;;1.60;0.70;;;0.90;99.90;;;;;;5055396;28;20100;-80
2021/01/24 06:51:37;;;;;;;0.50;0.40;;;0.90;99.90;;;;;;5041075;28;20086;-81
2021/01/24 06:54:08;;;;;;;0.40;0.40;;;0.90;99.90;;;;;;5025439;28;20488;-80
2021/01/24 06:56:47;;;;;;;0.40;0.40;;;0.90;99.90;;;;;;5037436;28;20431;-79
2021/01/24 06:59:13;;;;;;;;;;;0.90;99.90;;;;;;5027585;28;20494;-78
2021/01/24 07:01:41;;;;;;;1.73;0.80;;;0.90;99.90;;;;;;5051764;28;19909;-80
2021/01/24 07:04:21;;;;;;;0.40;0.40;;;0.80;99.90;;;;;;5052428;28;20101;-79
2021/01/24 07:06:48;;;;;;;0.50;0.47;;;0.80;99.90;;;;;;5046383;28;20128;-80
2021/01/24 07:09:26;;;;;;;1.00;0.70;;;0.80;99.90;;;;;;5044038;28;20513;-77
2021/01/24 07:12:03;;;;;;;1.17;0.50;;;0.80;99.90;;;;;;5050740;28;20021;-76
2021/01/24 07:14:34;;;;;;;0.50;0.40;;;0.90;99.90;;;;;;5049142;28;20083;-77
2021/01/24 07:17:03;;;;;;;0.73;0.47;;;0.90;99.90;;;;;;5047994;28;20391;-75
2021/01/24 07:19:30;;;;;;;0.83;0.40;;;0.80;99.90;;;;;;5038614;28;20089;-74
2021/01/24 07:21:56;;;;;;;1.60;0.77;;;0.90;99.90;;;;;;5045192;28;20145;-77
2021/01/24 07:24:22;;;;;;;0.60;0.60;;;0.80;99.90;;;;;;5049093;28;20076;-76
2021/01/24 07:26:48;;;;;;;1.40;0.77;;;0.80;99.90;;;;;;5049962;28;20028;-77
2021/01/24 07:29:14;;;;;;;1.53;0.90;;;0.80;99.90;;;;;;5040749;28;20052;-74
2021/01/24 07:31:40;;;;;;;1.20;0.60;;;0.70;99.90;;;;;;5048264;28;20078;-75
2021/01/24 07:34:07;;;;;;;0.73;0.60;;;0.80;99.90;;;;;;5026432;28;20177;-77
2021/01/24 07:36:34;;;;;;;0.93;0.73;;;0.80;99.90;;;;;;5036946;28;20029;-75
2021/01/24 07:39:00;;;;;;;0.53;0.50;;;0.90;99.90;;;;;;5047997;28;20032;-75
2021/01/24 07:41:25;;;;;;;1.23;0.73;;;0.90;99.90;;;;;;5047819;28;20112;-78
2021/01/24 07:43:51;;;;;;;0.70;0.60;;;1.00;99.90;;;;;;5046571;28;20112;-75
2021/01/24 07:46:16;;;;;;;1.50;0.67;;;1.00;99.90;;;;;;5038933;28;20045;-75
2021/01/24 07:48:42;;;;;;;1.43;0.80;;;1.00;99.90;;;;;;5045170;28;20036;-76
2021/01/24 07:51:08;;;;;;;1.40;0.80;;;1.00;99.90;;;;;;5041060;28;20468;-76
2021/01/24 07:53:34;;;;;;;0.80;0.60;;;1.00;99.90;;;;;;5042546;28;20041;-75
2021/01/24 07:56:01;;;;;;;1.30;0.70;;;0.90;99.90;;;;;;5051219;28;20036;-75
2021/01/24 07:58:26;;;;;;;1.13;0.60;;;0.90;99.90;;;;;;5046568;28;20036;-74
2021/01/24 08:00:52;;;;;;;0.47;0.40;;;0.90;99.90;;;;;;5032772;28;20079;-79
2021/01/24 08:03:20;;;;;;;2.07;0.60;;;0.90;99.90;;;;;;5044462;28;20037;-73
2021/01/24 08:05:45;;;;;;;1.03;0.60;;;0.90;99.90;;;;;;5046786;28;20155;-75
2021/01/24 08:08:11;;;;;;;1.10;0.70;;;0.90;99.90;;;;;;5045626;28;20116;-78
2021/01/24 08:10:37;;;;;;;1.00;0.87;;;0.90;99.90;;;;;;5016799;28;20149;-75
2021/01/24 08:13:02;;;;;;;0.50;0.40;;;0.90;99.90;;;;;;5038892;28;20042;-75
2021/01/24 08:15:28;;;;;;;1.07;0.60;;;0.80;99.90;;;;;;5040119;28;20094;-74
2021/01/24 08:17:56;;;;;;;1.13;0.50;;;0.80;99.90;;;;;;5044255;28;20395;-75
2021/01/24 08:20:23;;;;;;;1.20;0.80;;;0.80;99.90;;;;;;5045705;28;20542;-75
2021/01/24 08:22:49;;;;;;;0.53;0.50;;;0.90;99.90;;;;;;5047100;28;20056;-75
2021/01/24 08:25:16;;;;;;;0.70;0.60;;;1.00;99.90;;;;;;5046932;28;20045;-74
2021/01/24 08:27:43;;;;;;;0.57;0.40;;;1.10;99.90;;;;;;5047078;28;20032;-75
2021/01/24 08:30:10;;;;;;;1.53;1.00;;;1.10;99.90;;;;;;5050408;28;20041;-74
2021/01/24 08:32:39;;;;;;;1.43;0.90;;;1.30;99.90;;;;;;5050743;28;20033;-76
2021/01/24 08:35:05;;;;;;;1.10;0.70;;;1.50;99.90;;;;;;5050349;28;20341;-75
2021/01/24 08:37:31;;;;;;;0.60;0.40;;;1.50;99.90;;;;;;5048377;28;20025;-79
2021/01/24 08:39:58;;;;;;;0.53;0.50;;;1.60;99.90;;;;;;5042755;28;20048;-75
2021/01/24 08:42:23;;;;;;;0.77;0.70;;;1.60;99.90;;;;;;5043469;28;20040;-74
2021/01/24 08:45:05;;;;;;;0.90;0.50;;;1.50;99.90;;;;;;5048155;28;20488;-75
2021/01/24 08:47:31;;;;;;;1.03;0.70;;;1.60;99.90;;;;;;5049534;28;20885;-76
2021/01/24 08:50:10;;;;;;;2.10;0.63;;;1.60;99.90;;;;;;5044505;28;20022;-75
2021/01/24 08:52:36;;;;;;;;;;;1.70;99.90;;;;;;5049818;28;20037;-74
2021/01/24 08:55:05;;;;;;;1.10;0.70;;;1.60;99.90;;;;;;5047194;28;19958;-76
2021/01/24 08:57:34;;;;;;;0.98;0.60;;;1.60;99.90;;;;;;5047693;28;20061;-74
2021/01/24 09:00:11;;;;;;;0.85;0.68;;;1.70;99.90;;;;;;5049149;28;20040;-77
2021/01/24 09:02:39;;;;;;;0.50;0.40;;;1.60;99.90;;;;;;5050844;28;20041;-76
2021/01/24 09:05:15;;;;;;;0.50;0.50;;;1.50;99.90;;;;;;5051507;28;20442;-77
2021/01/24 09:07:43;;;;;;;0.60;0.60;;;1.50;99.90;;;;;;5037415;28;20041;-78
2021/01/24 09:10:17;;;;;;;2.47;0.70;;;1.50;99.90;;;;;;5049304;28;20464;-76
2021/01/24 09:12:44;;;;;;;1.77;0.70;;;1.60;99.90;;;;;;5050961;28;20033;-76
2021/01/24 09:15:10;;;;;;;1.53;0.57;;;1.60;99.90;;;;;;5051120;28;20037;-76
2021/01/24 09:17:36;;;;;;;2.13;0.70;;;1.70;99.90;;;;;;5048714;28;20059;-77
2021/01/24 09:20:03;;;;;;;1.07;0.73;;;1.60;99.90;;;;;;5055259;28;20085;-77
2021/01/24 09:22:28;;;;;;;1.00;0.70;;;1.30;99.90;;;;;;5047226;28;20048;-77
2021/01/24 09:24:54;;;;;;;1.57;0.70;;;1.30;99.90;;;;;;5046030;28;20053;-75
2021/01/24 09:27:19;;;;;;;1.63;0.87;;;1.40;99.90;;;;;;5039370;28;20037;-75
2021/01/24 09:29:45;;;;;;;1.63;0.83;;;1.30;99.90;;;;;;5037427;28;20468;-76
2021/01/24 09:32:11;;;;;;;1.43;0.70;;;1.40;99.90;;;;;;5049840;28;20037;-75
2021/01/24 09:34:37;;;;;;;1.80;0.70;;;1.40;99.90;;;;;;5038194;28;20063;-74
2021/01/24 09:37:04;;;;;;;1.60;0.93;;;1.50;99.90;;;;;;5049351;28;20364;-73
2021/01/24 09:39:29;;;;;;;1.90;1.00;;;1.40;99.90;;;;;;5040900;28;20104;-75
2021/01/24 09:41:55;;;;;;;1.20;1.10;;;1.50;99.90;;;;;;5051218;28;20145;-75
2021/01/24 09:44:21;;;;;;;1.93;0.93;;;1.50;99.90;;;;;;5026442;28;20404;-76
2021/01/24 09:46:46;;;;;;;1.20;0.97;;;1.50;99.90;;;;;;5050995;28;20064;-76
2021/01/24 09:49:12;;;;;;;0.80;0.60;;;1.50;99.90;;;;;;5049391;28;20032;-75
2021/01/24 09:51:40;;;;;;;2.70;0.80;;;1.50;99.90;;;;;;5046144;28;20476;-75
2021/01/24 09:54:05;;;;;;;2.90;0.80;;;1.40;99.90;;;;;;5042309;28;20032;-77
2021/01/24 09:56:31;;;;;;;3.43;1.13;;;1.40;99.90;;;;;;5038805;28;20022;-77
2021/01/24 09:58:57;;;;;;;2.23;1.10;;;1.30;99.90;;;;;;5037159;28;20037;-75
2021/01/24 10:01:24;;;;;;;3.87;1.40;;;1.50;99.90;;;;;;5049263;28;20029;-74
2021/01/24 10:03:50;;;;;;;1.03;0.57;;;1.40;99.90;;;;;;5043959;28;20033;-78
2021/01/24 10:06:17;;;;;;;0.53;0.50;;;1.50;99.90;;;;;;5052483;28;20387;-76
2021/01/24 10:08:43;;;;;;;3.73;0.93;;;1.50;99.90;;;;;;5042881;28;20069;-77
2021/01/24 10:11:09;;;;;;;2.33;1.00;;;1.50;99.90;;;;;;5044365;28;20024;-77
2021/01/24 10:13:35;;;;;;;1.77;0.83;;;1.50;99.90;;;;;;5037407;28;20022;-76
2021/01/24 10:16:01;;;;;;;2.27;1.00;;;1.50;99.90;;;;;;5045163;28;20365;-76
2021/01/24 10:18:26;;;;;;;1.87;1.13;;;1.50;99.90;;;;;;5045754;28;20025;-77
2021/01/24 10:20:52;;;;;;;3.57;1.10;;;1.60;99.90;;;;;;5050464;28;20422;-75
2021/01/24 10:23:21;;;;;;;3.33;1.00;;;1.60;99.90;;;;;;5048370;28;20107;-76
2021/01/24 10:25:48;;;;;;;1.00;0.90;;;1.60;99.90;;;;;;5054106;28;20067;-76
2021/01/24 10:28:14;;;;;;;1.50;0.90;;;1.50;99.90;;;;;;5047178;28;20033;-76
2021/01/24 10:30:41;;;;;;;4.07;1.10;;;1.40;99.90;;;;;;5045982;28;20036;-75
2021/01/24 10:33:07;;;;;;;2.00;1.03;;;1.50;99.90;;;;;;5040702;28;20029;-75
2021/01/24 10:35:32;;;;;;;1.13;0.83;;;1.40;99.90;;;;;;5041150;28;20117;-76
2021/01/24 10:37:58;;;;;;;1.80;1.00;;;1.40;99.90;;;;;;5048796;28;20025;-76
2021/01/24 10:40:23;;;;;;;1.77;0.83;;;1.40;99.90;;;;;;5044765;28;20033;-74
2021/01/24 10:42:49;;;;;;;1.40;1.00;;;1.40;99.90;;;;;;5048861;28;20056;-75
2021/01/24 10:45:15;;;;;;;1.73;0.80;;;1.30;99.90;;;;;;5040137;28;20090;-75
2021/01/24 10:47:40;;;;;;;2.23;1.10;;;1.30;99.90;;;;;;5049319;28;20032;-76
2021/01/24 10:50:08;;;;;;;2.93;1.23;;;1.40;99.90;;;;;;5042251;28;20571;-78
2021/01/24 10:52:35;;;;;;;1.60;0.90;;;1.50;99.90;;;;;;5048971;28;20017;-76
2021/01/24 10:55:01;;;;;;;3.20;1.13;;;1.60;99.90;;;;;;5046970;28;20021;-75
2021/01/24 10:57:26;;;;;;;2.70;1.00;;;1.50;99.90;;;;;;5034283;28;20025;-75
2021/01/24 10:59:52;;;;;;;1.00;0.80;;;1.60;99.90;;;;;;5042272;28;20499;-76
2021/01/24 11:02:18;;;;;;;1.83;1.10;;;1.50;99.90;;;;;;5049087;28;20444;-76
2021/01/24 11:04:44;;;;;;;1.80;0.97;;;1.50;99.90;;;;;;5047969;28;20029;-75
2021/01/24 11:07:10;;;;;;;1.83;0.77;;;1.50;99.90;;;;;;5042741;28;20071;-75
2021/01/24 11:09:36;;;;;;;1.30;0.80;;;1.50;99.90;;;;;;5043038;28;20115;-77
2021/01/24 11:12:03;;;;;;;0.60;0.60;;;1.50;99.90;;;;;;5044765;28;20610;-73
2021/01/24 11:14:29;;;;;;;2.17;1.20;;;1.40;99.90;;;;;;5042302;28;20129;-74
2021/01/24 11:16:54;;;;;;;1.67;0.67;;;1.60;99.90;;;;;;5042083;28;20072;-75
2021/01/24 11:19:20;;;;;;;2.63;1.00;;;1.60;99.90;;;;;;5048299;28;20537;-75
2021/01/24 11:21:46;;;;;;;1.97;0.70;;;1.60;99.90;;;;;;5049971;28;20052;-75
2021/01/24 11:24:11;;;;;;;1.80;0.97;;;1.70;99.90;;;;;;5044941;28;20403;-74
2021/01/24 11:26:37;;;;;;;2.87;0.93;;;1.80;99.90;;;;;;5048188;28;20040;-75
2021/01/24 11:29:03;;;;;;;2.77;1.27;;;1.80;99.90;;;;;;5047138;28;20021;-75
2021/01/24 11:31:30;;;;;;;1.27;0.53;;;1.90;99.90;;;;;;5048107;28;20043;-75
2021/01/24 11:33:56;;;;;;;2.53;1.13;;;1.70;99.90;;;;;;5020178;28;20037;-74
2021/01/24 11:36:22;;;;;;;1.57;0.73;;;1.70;99.90;;;;;;5044994;28;20563;-74
2021/01/24 11:38:50;;;;;;;1.20;0.97;;;1.60;99.90;;;;;;5049428;28;20029;-74
2021/01/24 11:41:15;;;;;;;2.70;1.20;;;1.60;99.90;;;;;;5039496;28;20025;-76
2021/01/24 11:43:41;;;;;;;1.77;1.07;;;1.60;99.90;;;;;;5043945;28;20036;-75
2021/01/24 11:46:07;;;;;;;3.90;1.10;;;1.60;99.90;;;;;;5045824;28;20051;-74
2021/01/24 11:48:32;;;;;;;3.13;1.00;;;1.70;99.90;;;;;;5046178;28;20126;-75
2021/01/24 11:50:58;;;;;;;2.20;1.17;;;1.60;99.90;;;;;;5046877;28;20048;-75
2021/01/24 11:53:24;;;;;;;1.17;0.73;;;1.60;99.90;;;;;;5043839;28;20064;-76
2021/01/24 11:55:52;;;;;;;5.17;1.47;;;1.60;99.90;;;;;;5043192;28;20431;-75
2021/01/24 11:58:19;;;;;;;1.67;1.00;;;1.50;99.90;;;;;;5043239;28;20021;-74
2021/01/24 12:00:45;;;;;;;1.70;0.90;;;1.50;99.90;;;;;;5046571;28;20120;-76
2021/01/24 12:03:11;;;;;;;1.60;0.90;;;1.70;99.90;;;;;;5037761;28;20117;-75
2021/01/24 12:05:36;;;;;;;1.83;1.10;;;1.80;99.90;;;;;;5039179;28;20399;-75
2021/01/24 12:08:02;;;;;;;3.97;1.20;;;1.90;99.90;;;;;;5052609;28;20052;-75
2021/01/24 12:10:29;;;;;;;3.60;1.13;;;1.90;99.90;;;;;;5051863;28;20037;-75
2021/01/24 12:12:55;;;;;;;1.80;1.10;;;1.90;99.90;;;;;;5047314;28;20033;-75
2021/01/24 12:15:20;;;;;;;3.77;1.17;;;1.70;99.90;;;;;;5034994;28;20033;-75
2021/01/24 12:17:46;;;;;;;1.00;0.90;;;1.80;99.90;;;;;;5036796;28;20495;-75
2021/01/24 12:20:12;;;;;;;0.93;0.70;;;1.70;99.90;;;;;;5051171;28;20037;-74
2021/01/24 12:22:38;;;;;;;2.10;1.30;;;1.70;99.90;;;;;;5053933;28;20032;-74
2021/01/24 12:25:04;;;;;;;2.50;1.10;;;1.60;99.90;;;;;;5051309;28;20053;-76
2021/01/24 12:27:30;;;;;;;2.17;1.10;;;1.60;99.90;;;;;;5044243;28;20480;-76
2021/01/24 12:29:55;;;;;;;1.17;0.70;;;1.50;99.90;;;;;;5038087;28;20026;-77
2021/01/24 12:32:21;;;;;;;2.07;1.27;;;1.60;99.90;;;;;;5044891;28;20490;-78
2021/01/24 12:34:47;;;;;;;3.53;1.47;;;1.80;99.90;;;;;;5042170;28;20013;-77
2021/01/24 12:37:13;;;;;;;1.90;1.10;;;2.10;99.90;;;;;;5052272;28;20565;-77
2021/01/24 12:39:39;;;;;;;1.97;0.80;;;2.20;99.90;;;;;;5039080;28;20017;-79
2021/01/24 12:42:05;;;;;;;2.37;1.00;;;2.10;99.90;;;;;;5050894;28;20025;-78
2021/01/24 12:44:30;;;;;;;3.27;1.27;;;2.10;99.90;;;;;;5045600;28;20096;-78
2021/01/24 12:46:56;;;;;;;3.43;1.07;;;2.30;99.90;;;;;;5049201;28;20037;-76
2021/01/24 12:49:22;;;;;;;5.37;1.27;;;2.30;99.90;;;;;;5038522;28;20124;-77
2021/01/24 12:51:47;;;;;;;3.13;1.03;;;2.10;99.90;;;;;;5048983;28;20408;-78
2021/01/24 12:54:13;;;;;;;2.70;1.27;;;2.00;99.90;;;;;;5047631;28;20484;-76
2021/01/24 12:56:38;;;;;;;0.77;0.70;;;1.80;99.90;;;;;;5045316;28;20064;-76
2021/01/24 12:59:04;;;;;;;2.70;1.00;;;1.90;99.90;;;;;;5046384;28;20116;-78